Terminal Aerodrome Forecast
Issued by NWS

Home | Current Version | Previous Version | Text Only | Print | Product List | Glossary On
Versions: 1 2 3 4 5 6 7 8 9 10 11 12 13 14 15 16 17 18 19 20 21 22 23 24 25 26 27 28 29 30 31 32 33 34 35 36
636
FTUS46 KPQR 282326
TAFONP
TAF
KONP 282326Z 2900/2924 34020G30KT 5SM HZ BKN003
     FM290300 35012KT P6SM OVC003
     FM290600 36005KT 5SM BR OVC004
     FM291700 36008KT P6SM SCT005
     FM291900 35015G25KT P6SM FEW005=

USA.gov is the U.S. government's official web portal to all federal, state and local government web resources and services.